Time;durP1;ratioP1;P1;durP2;ratioP2;P2;SDS_P1;SDS_P2;PMS_P1;PMS_P2;Temp;Humidity;BMP_temperature;BMP_pressure;BME280_temperature;BME280_humidity;BME280_pressure;Samples;Min_cycle;Max_cycle;Signal;HPM_P1;HPM_P2
2023/01/30 06:01:35;;;;;;;;;23.00;22.67;;;;;;;;6354719;22;45600;-64
2023/01/30 06:04:00;;;;;;;;;27.00;22.00;;;;;;;;6402788;22;45526;-65
2023/01/30 06:06:25;;;;;;;;;24.00;19.00;;;;;;;;6402876;22;45219;-65
2023/01/30 06:08:54;;;;;;;;;26.33;21.00;;;;;;;;6403019;22;45140;-65
2023/01/30 06:11:19;;;;;;;;;24.00;19.00;;;;;;;;6403846;22;45508;-64
2023/01/30 06:13:45;;;;;;;;;20.00;19.33;;;;;;;;6403560;22;45296;-64
2023/01/30 06:16:11;;;;;;;;;26.00;22.33;;;;;;;;6402883;22;45832;-64
2023/01/30 06:18:37;;;;;;;;;25.00;22.33;;;;;;;;6402277;22;46159;-64
2023/01/30 06:21:02;;;;;;;;;23.00;19.67;;;;;;;;6403571;22;45186;-64
2023/01/30 06:23:27;;;;;;;;;15.33;13.33;;;;;;;;6403700;22;45305;-64
2023/01/30 06:25:53;;;;;;;;;24.33;20.67;;;;;;;;6403098;22;45258;-64
2023/01/30 06:28:18;;;;;;;;;18.67;17.33;;;;;;;;6403662;22;45223;-64
2023/01/30 06:30:44;;;;;;;;;25.67;22.33;;;;;;;;6402837;22;45247;-64
2023/01/30 06:33:09;;;;;;;;;29.00;22.33;;;;;;;;6400894;22;45570;-65
2023/01/30 06:35:36;;;;;;;;;25.00;19.67;;;;;;;;6402928;22;45471;-65
2023/01/30 06:38:01;;;;;;;;;21.33;19.00;;;;;;;;6402667;22;45629;-64
2023/01/30 06:40:26;;;;;;;;;22.33;16.67;;;;;;;;6402478;22;45294;-65
2023/01/30 06:42:51;;;;;;;;;19.67;18.00;;;;;;;;6404092;22;45217;-63
2023/01/30 06:45:18;;;;;;;;;21.67;18.67;;;;;;;;6404452;22;45290;-64
2023/01/30 06:47:53;;;;;;;;;20.33;18.33;;;;;;;;6402363;22;46135;-64
2023/01/30 06:50:19;;;;;;;;;22.00;19.67;;;;;;;;6404027;22;45406;-64
2023/01/30 06:52:45;;;;;;;;;27.00;19.33;;;;;;;;6404532;22;45275;-64
2023/01/30 06:55:11;;;;;;;;;21.67;19.67;;;;;;;;6402646;22;45766;-64
2023/01/30 06:57:37;;;;;;;;;25.00;21.33;;;;;;;;6403942;22;46279;-64
2023/01/30 07:00:06;;;;;;;;;27.33;19.00;;;;;;;;6403424;22;45147;-66
2023/01/30 07:02:34;;;;;;;;;28.00;23.33;;;;;;;;6403796;22;45519;-64
2023/01/30 07:04:59;;;;;;;;;22.00;20.00;;;;;;;;6399031;22;45326;-64
2023/01/30 07:07:24;;;;;;;;;20.33;19.00;;;;;;;;6401230;22;45753;-65
2023/01/30 07:09:49;;;;;;;;;27.33;19.33;;;;;;;;6402937;22;45274;-65
2023/01/30 07:12:15;;;;;;;;;21.00;20.00;;;;;;;;6402270;22;45367;-64
2023/01/30 07:14:40;;;;;;;;;22.67;18.33;;;;;;;;6373077;22;45395;-64
2023/01/30 07:17:05;;;;;;;;;21.67;21.00;;;;;;;;6401815;22;46026;-62
2023/01/30 07:19:30;;;;;;;;;23.00;18.67;;;;;;;;6401841;22;45439;-64
2023/01/30 07:21:55;;;;;;;;;26.00;20.33;;;;;;;;6373216;22;45282;-64
2023/01/30 07:24:21;;;;;;;;;22.00;19.67;;;;;;;;6404186;22;45451;-61
2023/01/30 07:26:46;;;;;;;;;26.67;21.67;;;;;;;;6402320;22;46163;-61
2023/01/30 07:29:12;;;;;;;;;17.67;17.67;;;;;;;;6396424;22;45600;-61
2023/01/30 07:31:37;;;;;;;;;23.67;21.00;;;;;;;;6402344;22;45234;-61
2023/01/30 07:34:02;;;;;;;;;24.33;23.00;;;;;;;;6403658;22;45296;-59
2023/01/30 07:36:27;;;;;;;;;26.00;19.67;;;;;;;;6404534;22;45319;-59
2023/01/30 07:38:52;;;;;;;;;25.67;19.67;;;;;;;;6402964;22;45175;-59
2023/01/30 07:41:18;;;;;;;;;22.00;20.33;;;;;;;;6402992;22;45506;-58
2023/01/30 07:43:43;;;;;;;;;32.00;24.33;;;;;;;;6402047;22;45603;-59
2023/01/30 07:46:08;;;;;;;;;21.00;20.00;;;;;;;;6403409;22;45386;-59
2023/01/30 07:48:33;;;;;;;;;22.00;20.33;;;;;;;;6403921;22;45272;-59
2023/01/30 07:50:58;;;;;;;;;21.00;18.33;;;;;;;;6404054;22;45220;-59
2023/01/30 07:53:23;;;;;;;;;19.67;19.67;;;;;;;;6403899;22;45296;-59
2023/01/30 07:55:49;;;;;;;;;19.33;18.00;;;;;;;;6402497;22;47019;-59
2023/01/30 07:58:15;;;;;;;;;25.00;22.00;;;;;;;;6374995;22;45211;-57
2023/01/30 08:00:40;;;;;;;;;24.67;20.67;;;;;;;;6373845;22;45325;-58
2023/01/30 08:03:09;;;;;;;;;32.33;23.67;;;;;;;;6403662;22;45501;-58
2023/01/30 08:05:34;;;;;;;;;24.33;19.00;;;;;;;;6404094;22;46246;-59
2023/01/30 08:08:00;;;;;;;;;21.67;19.00;;;;;;;;6373714;22;45348;-59
2023/01/30 08:10:25;;;;;;;;;27.67;21.33;;;;;;;;6374856;22;45614;-59
2023/01/30 08:12:50;;;;;;;;;27.00;19.33;;;;;;;;6402218;22;45580;-57
2023/01/30 08:15:16;;;;;;;;;27.67;20.00;;;;;;;;6403211;22;45511;-59
2023/01/30 08:17:41;;;;;;;;;25.33;22.33;;;;;;;;6403054;22;45258;-61
2023/01/30 08:20:06;;;;;;;;;19.67;18.67;;;;;;;;6372116;22;45308;-61
2023/01/30 08:22:32;;;;;;;;;20.00;16.33;;;;;;;;6402955;22;45531;-61
2023/01/30 08:24:57;;;;;;;;;26.33;23.33;;;;;;;;6403463;22;45228;-61
2023/01/30 08:27:22;;;;;;;;;24.33;20.00;;;;;;;;6374385;22;45324;-61
2023/01/30 08:29:48;;;;;;;;;27.00;22.00;;;;;;;;6375226;22;45390;-59
2023/01/30 08:32:13;;;;;;;;;22.00;21.33;;;;;;;;6402886;22;45230;-59
2023/01/30 08:34:38;;;;;;;;;20.00;20.00;;;;;;;;6403011;22;45980;-61
2023/01/30 08:37:03;;;;;;;;;25.33;21.33;;;;;;;;6399541;22;45810;-59
2023/01/30 08:39:29;;;;;;;;;21.00;19.67;;;;;;;;6402375;22;45303;-60
2023/01/30 08:41:54;;;;;;;;;26.00;21.33;;;;;;;;6401126;22;45284;-59
2023/01/30 08:44:19;;;;;;;;;24.67;22.33;;;;;;;;6398300;22;46075;-59
2023/01/30 08:46:44;;;;;;;;;21.67;19.33;;;;;;;;6400439;22;45242;-59
2023/01/30 08:49:09;;;;;;;;;22.00;19.00;;;;;;;;6399973;22;45230;-59
2023/01/30 08:51:35;;;;;;;;;21.00;21.00;;;;;;;;6399879;22;45277;-59
2023/01/30 08:54:00;;;;;;;;;24.67;22.67;;;;;;;;6400970;22;46219;-59
2023/01/30 08:56:25;;;;;;;;;20.00;19.33;;;;;;;;6402146;22;45272;-59
2023/01/30 08:58:50;;;;;;;;;22.00;21.67;;;;;;;;6401758;22;45518;-60
2023/01/30 09:01:15;;;;;;;;;20.67;19.00;;;;;;;;6401708;22;45429;-59
2023/01/30 09:03:41;;;;;;;;;22.00;18.67;;;;;;;;6401797;22;45408;-60
2023/01/30 09:06:07;;;;;;;;;17.67;17.67;;;;;;;;6402051;22;45353;-59
2023/01/30 09:08:32;;;;;;;;;24.33;21.67;;;;;;;;6402743;22;45738;-59
2023/01/30 09:11:02;;;;;;;;;22.00;20.00;;;;;;;;6402420;22;45351;-60
2023/01/30 09:13:27;;;;;;;;;59.75;45.75;;;;;;;;6373860;22;46902;-60
2023/01/30 09:15:52;;;;;;;;;21.33;19.33;;;;;;;;6402259;22;45238;-60
2023/01/30 09:18:17;;;;;;;;;16.00;9.00;;;;;;;;6402772;22;45257;-60
2023/01/30 09:20:42;;;;;;;;;29.33;24.33;;;;;;;;6401285;22;45374;-60
2023/01/30 09:23:08;;;;;;;;;26.67;23.67;;;;;;;;6400804;22;46130;-60
2023/01/30 09:25:33;;;;;;;;;20.33;18.67;;;;;;;;6401814;22;45303;-59
2023/01/30 09:27:58;;;;;;;;;17.67;16.33;;;;;;;;6401475;22;45181;-59
2023/01/30 09:30:24;;;;;;;;;21.33;18.00;;;;;;;;6400863;22;45207;-59
2023/01/30 09:32:49;;;;;;;;;20.33;19.00;;;;;;;;6401570;22;46592;-60
2023/01/30 09:35:14;;;;;;;;;20.33;19.00;;;;;;;;6400926;22;45293;-60
2023/01/30 09:37:47;;;;;;;;;27.00;20.67;;;;;;;;6401973;22;45250;-60
2023/01/30 09:40:14;;;;;;;;;21.67;17.33;;;;;;;;6400438;22;45423;-60
2023/01/30 09:42:57;;;;;;;;;25.00;20.00;;;;;;;;6401504;22;45267;-60
2023/01/30 09:45:32;;;;;;;;;21.67;17.33;;;;;;;;6401185;22;45820;-60
2023/01/30 09:48:13;;;;;;;;;23.67;21.00;;;;;;;;6401296;22;45343;-60
2023/01/30 09:50:41;;;;;;;;;17.67;16.67;;;;;;;;6373458;22;45345;-59
2023/01/30 09:53:17;;;;;;;;;27.67;18.67;;;;;;;;6400705;22;45336;-59
2023/01/30 09:55:43;;;;;;;;;20.33;20.33;;;;;;;;6401352;22;45308;-59
2023/01/30 09:58:28;;;;;;;;;27.00;21.00;;;;;;;;6400789;22;45280;-59
2023/01/30 10:00:58;;;;;;;;;23.00;20.67;;;;;;;;6334089;22;45820;-60
2023/01/30 10:03:28;;;;;;;;;27.67;23.00;;;;;;;;6400191;22;46290;-60
2023/01/30 10:05:55;;;;;;;;;29.00;25.33;;;;;;;;6400841;22;45363;-60
2023/01/30 10:08:30;;;;;;;;;22.67;21.00;;;;;;;;6401053;22;45341;-60
2023/01/30 10:11:01;;;;;;;;;20.00;19.00;;;;;;;;6400705;22;45205;-60
2023/01/30 10:13:49;;;;;;;;;27.33;22.33;;;;;;;;6400733;22;46027;-60
2023/01/30 10:16:14;;;;;;;;;23.00;21.33;;;;;;;;6340182;22;45472;-60
2023/01/30 10:18:59;;;;;;;;;20.00;18.33;;;;;;;;6403914;22;45220;-60
2023/01/30 10:21:24;;;;;;;;;23.67;22.00;;;;;;;;6403063;22;45610;-60
2023/01/30 10:24:04;;;;;;;;;25.67;20.00;;;;;;;;6402749;22;45468;-60
2023/01/30 10:26:30;;;;;;;;;27.67;22.33;;;;;;;;6403553;22;45525;-60
2023/01/30 10:29:09;;;;;;;;;20.67;19.00;;;;;;;;6401722;22;45423;-60
2023/01/30 10:31:40;;;;;;;;;19.00;17.67;;;;;;;;6402864;22;45466;-60
2023/01/30 10:34:10;;;;;;;;;26.33;19.67;;;;;;;;6402360;22;45473;-60
2023/01/30 10:36:40;;;;;;;;;26.67;14.67;;;;;;;;6374410;22;45285;-60
2023/01/30 10:39:16;;;;;;;;;20.33;19.33;;;;;;;;6402239;22;45360;-60
2023/01/30 10:41:49;;;;;;;;;23.00;19.00;;;;;;;;6404002;22;45314;-59
2023/01/30 10:44:17;;;;;;;;;24.00;22.00;;;;;;;;6402554;22;45461;-60
2023/01/30 10:46:54;;;;;;;;;20.33;17.00;;;;;;;;6402195;22;45354;-59
2023/01/30 10:49:35;;;;;;;;;22.00;16.67;;;;;;;;6402996;22;45402;-60
2023/01/30 10:52:00;;;;;;;;;16.33;15.00;;;;;;;;6401850;22;45694;-60
2023/01/30 10:54:30;;;;;;;;;29.00;19.33;;;;;;;;6402837;22;45300;-59
2023/01/30 10:57:02;;;;;;;;;24.33;20.33;;;;;;;;6402617;22;45603;-60
2023/01/30 10:59:42;;;;;;;;;18.00;17.00;;;;;;;;6402520;22;45356;-59
2023/01/30 11:02:07;;;;;;;;;16.67;15.67;;;;;;;;6402140;22;45253;-59
2023/01/30 11:04:41;;;;;;;;;19.33;16.67;;;;;;;;6402617;22;46267;-59
2023/01/30 11:07:06;;;;;;;;;17.33;17.33;;;;;;;;6371319;22;45880;-60
2023/01/30 11:09:41;;;;;;;;;18.00;16.67;;;;;;;;6402478;22;45819;-60
2023/01/30 11:12:07;;;;;;;;;18.00;16.33;;;;;;;;6402139;22;45340;-60
2023/01/30 11:14:51;;;;;;;;;19.33;17.00;;;;;;;;6400969;22;45481;-60
2023/01/30 11:17:17;;;;;;;;;16.33;15.00;;;;;;;;6400878;22;45304;-60
2023/01/30 11:19:43;;;;;;;;;16.33;13.67;;;;;;;;6400501;22;45340;-60
2023/01/30 11:22:13;;;;;;;;;20.67;17.33;;;;;;;;6401750;22;45368;-60
2023/01/30 11:24:40;;;;;;;;;13.33;13.33;;;;;;;;6401919;22;46287;-60
2023/01/30 11:27:14;;;;;;;;;12.00;10.67;;;;;;;;6401963;22;45332;-61
2023/01/30 11:29:39;;;;;;;;;17.00;16.00;;;;;;;;6403174;22;45411;-61
2023/01/30 11:32:10;;;;;;;;;9.67;8.67;;;;;;;;6402088;22;45419;-60
2023/01/30 11:34:35;;;;;;;;;10.67;10.67;;;;;;;;6402622;22;45728;-60
2023/01/30 11:37:33;;;;;;;;;12.67;8.00;;;;;;;;6402183;22;45763;-60
2023/01/30 11:39:58;;;;;;;;;7.67;7.67;;;;;;;;6330612;22;45511;-59
2023/01/30 11:42:27;;;;;;;;;12.67;10.33;;;;;;;;6403248;22;45215;-59
2023/01/30 11:44:57;;;;;;;;;11.33;7.67;;;;;;;;6399851;22;46762;-60
2023/01/30 11:47:24;;;;;;;;;14.33;14.33;;;;;;;;6403137;22;45265;-60
2023/01/30 11:49:53;;;;;;;;;13.67;13.67;;;;;;;;6403203;22;45218;-60
2023/01/30 11:52:21;;;;;;;;;13.00;13.00;;;;;;;;6402123;22;45315;-59
2023/01/30 11:54:48;;;;;;;;;11.67;10.67;;;;;;;;6402234;22;46073;-59
2023/01/30 11:57:14;;;;;;;;;10.67;10.67;;;;;;;;6402256;22;45198;-59
2023/01/30 11:59:48;;;;;;;;;15.67;11.67;;;;;;;;6402546;22;45261;-61
2023/01/30 12:02:13;;;;;;;;;11.33;9.33;;;;;;;;6373292;22;45270;-60
2023/01/30 12:04:41;;;;;;;;;12.33;11.33;;;;;;;;6402914;22;46494;-62
2023/01/30 12:07:15;;;;;;;;;12.00;10.67;;;;;;;;6401978;22;45368;-59
2023/01/30 12:09:40;;;;;;;;;13.67;10.67;;;;;;;;6401644;22;45412;-59
2023/01/30 12:12:24;;;;;;;;;14.33;13.00;;;;;;;;6402213;22;45162;-60
2023/01/30 12:14:51;;;;;;;;;16.00;15.00;;;;;;;;6403591;22;45652;-60
2023/01/30 12:17:29;;;;;;;;;13.33;12.00;;;;;;;;6403402;22;45220;-60
2023/01/30 12:19:57;;;;;;;;;15.67;8.67;;;;;;;;6403821;22;45343;-60
2023/01/30 12:22:28;;;;;;;;;8.33;8.33;;;;;;;;6404029;22;45328;-60
2023/01/30 12:24:58;;;;;;;;;10.67;10.00;;;;;;;;6402880;22;45262;-60
2023/01/30 12:27:26;;;;;;;;;12.00;9.00;;;;;;;;6403706;22;45389;-61
2023/01/30 12:29:57;;;;;;;;;11.33;11.33;;;;;;;;6403789;22;45266;-61
2023/01/30 12:32:25;;;;;;;;;11.67;10.00;;;;;;;;6403942;22;45750;-60
2023/01/30 12:34:50;;;;;;;;;9.00;8.00;;;;;;;;6403922;22;45272;-60
2023/01/30 12:37:30;;;;;;;;;9.33;9.33;;;;;;;;6403684;22;45331;-60
2023/01/30 12:39:56;;;;;;;;;7.33;7.33;;;;;;;;6402516;22;45333;-60
2023/01/30 12:42:21;;;;;;;;;8.67;8.67;;;;;;;;6404466;22;45531;-60
2023/01/30 12:45:06;;;;;;;;;12.00;10.33;;;;;;;;6403720;22;46139;-60
2023/01/30 12:47:32;;;;;;;;;11.33;9.33;;;;;;;;6403058;22;45176;-60
2023/01/30 12:50:05;;;;;;;;;9.00;9.00;;;;;;;;6403619;22;45495;-60
2023/01/30 12:53:00;;;;;;;;;8.67;8.67;;;;;;;;6403868;22;45717;-60
2023/01/30 12:55:25;;;;;;;;;7.00;7.00;;;;;;;;6288844;22;46265;-60
2023/01/30 12:57:56;;;;;;;;;8.00;7.67;;;;;;;;6401912;22;45298;-60
2023/01/30 13:00:50;;;;;;;;;9.33;9.33;;;;;;;;6404254;22;45296;-60
2023/01/30 13:03:26;;;;;;;;;7.00;7.00;;;;;;;;6372491;22;45704;-63
2023/01/30 13:06:11;;;;;;;;;9.33;9.33;;;;;;;;6392507;22;46136;-63
2023/01/30 13:08:51;;;;;;;;;14.00;9.33;;;;;;;;6402229;22;45408;-63
2023/01/30 13:11:22;;;;;;;;;8.33;6.00;;;;;;;;6402086;22;45306;-63
2023/01/30 13:14:06;;;;;;;;;12.00;9.67;;;;;;;;6402662;22;45336;-63
2023/01/30 13:16:47;;;;;;;;;9.67;8.33;;;;;;;;6401932;22;45331;-63
2023/01/30 13:19:35;;;;;;;;;10.33;9.33;;;;;;;;6401271;22;45320;-63
2023/01/30 13:22:07;;;;;;;;;9.00;7.67;;;;;;;;6359455;22;45509;-62
2023/01/30 13:24:52;;;;;;;;;8.00;8.00;;;;;;;;6402813;22;45388;-62
2023/01/30 13:27:19;;;;;;;;;11.00;9.33;;;;;;;;6400732;22;45311;-63
2023/01/30 13:29:46;;;;;;;;;10.00;9.00;;;;;;;;6403395;22;45577;-63
2023/01/30 13:32:16;;;;;;;;;13.67;11.00;;;;;;;;6400233;22;45292;-63
2023/01/30 13:34:44;;;;;;;;;10.67;10.67;;;;;;;;6402868;22;45326;-63
2023/01/30 13:37:15;;;;;;;;;11.00;9.00;;;;;;;;6399944;22;45312;-63
2023/01/30 13:39:53;;;;;;;;;15.00;9.67;;;;;;;;6401520;22;45744;-62
2023/01/30 13:42:18;;;;;;;;;12.67;10.67;;;;;;;;6401043;22;45537;-62
2023/01/30 13:44:44;;;;;;;;;12.00;11.00;;;;;;;;6402768;22;45574;-60
2023/01/30 13:47:29;;;;;;;;;12.00;11.00;;;;;;;;6398789;22;46329;-60
2023/01/30 13:50:21;;;;;;;;;8.67;8.00;;;;;;;;6394316;22;45899;-60
2023/01/30 13:52:51;;;;;;;;;9.33;9.33;;;;;;;;6351847;22;45388;-60
2023/01/30 13:55:30;;;;;;;;;9.33;9.33;;;;;;;;6401691;22;45228;-60
2023/01/30 13:58:04;;;;;;;;;11.00;10.00;;;;;;;;6401115;22;45639;-60
2023/01/30 14:00:33;;;;;;;;;15.33;13.00;;;;;;;;6400779;22;45641;-60
2023/01/30 14:03:07;;;;;;;;;11.33;11.00;;;;;;;;6398275;22;45388;-61
2023/01/30 14:06:01;;;;;;;;;11.00;9.00;;;;;;;;6401887;22;45325;-61
2023/01/30 14:08:26;;;;;;;;;12.00;11.33;;;;;;;;6346774;22;45694;-60
2023/01/30 14:10:54;;;;;;;;;10.67;9.33;;;;;;;;6401338;22;45499;-61
2023/01/30 14:13:20;;;;;;;;;13.67;11.00;;;;;;;;6402324;22;45300;-60
2023/01/30 14:15:56;;;;;;;;;16.00;12.00;;;;;;;;6399663;22;45507;-61
2023/01/30 14:18:34;;;;;;;;;10.67;10.00;;;;;;;;6401860;22;45410;-60
2023/01/30 14:21:12;;;;;;;;;9.67;9.67;;;;;;;;6400349;22;45275;-61
2023/01/30 14:23:38;;;;;;;;;13.33;11.67;;;;;;;;6402217;22;45280;-61
2023/01/30 14:26:03;;;;;;;;;11.00;11.00;;;;;;;;6401377;22;45599;-61
2023/01/30 14:28:28;;;;;;;;;10.33;10.33;;;;;;;;6401943;22;46268;-61
2023/01/30 14:31:03;;;;;;;;;11.67;11.33;;;;;;;;6401941;22;45392;-61
2023/01/30 14:33:32;;;;;;;;;13.00;11.33;;;;;;;;6402090;22;45316;-60
2023/01/30 14:36:00;;;;;;;;;10.33;10.33;;;;;;;;6400009;22;45341;-61
2023/01/30 14:38:30;;;;;;;;;17.67;15.33;;;;;;;;6402219;22;46462;-60
2023/01/30 14:41:01;;;;;;;;;17.00;13.00;;;;;;;;6401511;22;45597;-61
2023/01/30 14:43:26;;;;;;;;;13.33;12.00;;;;;;;;6402024;22;45535;-60
2023/01/30 14:45:55;;;;;;;;;14.67;13.00;;;;;;;;6401847;22;45282;-60
2023/01/30 14:48:27;;;;;;;;;11.33;10.00;;;;;;;;6401835;22;45153;-60
2023/01/30 14:51:10;;;;;;;;;12.33;10.33;;;;;;;;6400850;22;45542;-60
2023/01/30 14:53:53;;;;;;;;;19.00;14.00;;;;;;;;6402099;22;45196;-60
2023/01/30 14:56:31;;;;;;;;;14.00;13.00;;;;;;;;6401580;22;45464;-60
2023/01/30 14:58:59;;;;;;;;;12.00;12.00;;;;;;;;6401137;22;46543;-60
2023/01/30 15:01:25;;;;;;;;;14.67;14.00;;;;;;;;6400921;22;45288;-60
2023/01/30 15:03:50;;;;;;;;;14.00;13.00;;;;;;;;6403495;22;45297;-61
2023/01/30 15:06:18;;;;;;;;;13.67;13.00;;;;;;;;6403338;22;45206;-60
2023/01/30 15:08:44;;;;;;;;;18.00;12.00;;;;;;;;6403470;22;46103;-60
2023/01/30 15:11:24;;;;;;;;;14.67;12.00;;;;;;;;6402348;22;45370;-61
2023/01/30 15:13:57;;;;;;;;;17.33;11.67;;;;;;;;6400592;22;45433;-61
2023/01/30 15:16:41;;;;;;;;;13.33;10.33;;;;;;;;6403630;22;45298;-60
2023/01/30 15:19:28;;;;;;;;;14.67;12.00;;;;;;;;6402792;22;46091;-60
2023/01/30 15:21:53;;;;;;;;;17.67;12.00;;;;;;;;6374129;22;45245;-60
2023/01/30 15:24:37;;;;;;;;;16.00;11.67;;;;;;;;6400574;22;45281;-60
2023/01/30 15:27:13;;;;;;;;;13.67;11.00;;;;;;;;6402775;22;45254;-60
2023/01/30 15:29:38;;;;;;;;;12.33;9.00;;;;;;;;6402465;22;45319;-60
2023/01/30 15:32:23;;;;;;;;;13.00;10.00;;;;;;;;6402648;22;45320;-60
2023/01/30 15:34:55;;;;;;;;;12.00;11.00;;;;;;;;6402716;22;45597;-60
2023/01/30 15:37:29;;;;;;;;;11.67;10.00;;;;;;;;6402659;22;45747;-60
2023/01/30 15:40:13;;;;;;;;;12.67;10.67;;;;;;;;6402065;22;45242;-60
2023/01/30 15:42:42;;;;;;;;;12.00;11.00;;;;;;;;6402342;22;45292;-60
2023/01/30 15:45:10;;;;;;;;;13.33;9.00;;;;;;;;6403112;22;45324;-60
2023/01/30 15:47:45;;;;;;;;;9.00;9.00;;;;;;;;6403427;22;45155;-60
2023/01/30 15:50:10;;;;;;;;;7.00;6.00;;;;;;;;6402828;22;45254;-61
2023/01/30 15:52:43;;;;;;;;;8.00;6.67;;;;;;;;6403062;22;45621;-62
2023/01/30 15:55:14;;;;;;;;;5.67;4.67;;;;;;;;6402120;22;45228;-60
2023/01/30 15:57:40;;;;;;;;;3.67;3.67;;;;;;;;6401201;22;45388;-60
2023/01/30 16:00:07;;;;;;;;;10.67;2.00;;;;;;;;6403169;22;45928;-61
2023/01/30 16:02:33;;;;;;;;;3.00;3.00;;;;;;;;6401256;22;45290;-61
2023/01/30 16:05:05;;;;;;;;;2.00;2.00;;;;;;;;6402089;22;45315;-61
2023/01/30 16:07:30;;;;;;;;;3.00;3.00;;;;;;;;6403819;22;45597;-60
2023/01/30 16:09:56;;;;;;;;;4.00;2.67;;;;;;;;6399552;22;45825;-59
2023/01/30 16:12:25;;;;;;;;;5.00;3.00;;;;;;;;6402764;22;45419;-59
2023/01/30 16:14:51;;;;;;;;;4.33;3.00;;;;;;;;6402467;22;45552;-61
2023/01/30 16:17:17;;;;;;;;;3.00;3.00;;;;;;;;6402192;22;45281;-60
2023/01/30 16:19:43;;;;;;;;;4.00;3.00;;;;;;;;6401800;22;46023;-59
2023/01/30 16:22:15;;;;;;;;;3.00;1.33;;;;;;;;6401339;22;45594;-60
2023/01/30 16:24:43;;;;;;;;;3.00;3.00;;;;;;;;6400084;22;45165;-59
2023/01/30 16:27:14;;;;;;;;;4.67;4.00;;;;;;;;6402749;22;45383;-59
2023/01/30 16:29:49;;;;;;;;;2.00;2.00;;;;;;;;6402848;22;45266;-60
2023/01/30 16:32:16;;;;;;;;;1.67;1.67;;;;;;;;6401700;22;45324;-60
2023/01/30 16:34:41;;;;;;;;;6.33;4.00;;;;;;;;6403794;22;45227;-60
2023/01/30 16:37:19;;;;;;;;;3.33;3.33;;;;;;;;6403067;22;45434;-60
2023/01/30 16:39:45;;;;;;;;;5.33;4.00;;;;;;;;6403464;22;46339;-60
2023/01/30 16:42:27;;;;;;;;;5.67;5.67;;;;;;;;6401181;22;45501;-63
2023/01/30 16:45:17;;;;;;;;;5.33;4.33;;;;;;;;6402644;22;45336;-59
2023/01/30 16:47:42;;;;;;;;;7.00;6.00;;;;;;;;6386810;22;45112;-58
2023/01/30 16:50:18;;;;;;;;;5.00;5.00;;;;;;;;6403192;22;45426;-60
2023/01/30 16:52:45;;;;;;;;;8.00;7.00;;;;;;;;6403743;22;45196;-60
2023/01/30 16:55:18;;;;;;;;;8.67;6.67;;;;;;;;6403608;22;45282;-60
2023/01/30 16:57:49;;;;;;;;;9.67;6.67;;;;;;;;6401979;22;45215;-59
2023/01/30 17:00:23;;;;;;;;;11.67;6.33;;;;;;;;6400685;22;46191;-59
2023/01/30 17:02:59;;;;;;;;;9.00;8.00;;;;;;;;6401980;22;45179;-61
2023/01/30 17:05:38;;;;;;;;;9.00;7.33;;;;;;;;6402952;22;45318;-61
2023/01/30 17:08:03;;;;;;;;;9.33;7.33;;;;;;;;6402481;22;45459;-60
2023/01/30 17:10:40;;;;;;;;;10.67;9.00;;;;;;;;6403477;22;45184;-60
2023/01/30 17:13:24;;;;;;;;;11.33;8.67;;;;;;;;6403126;22;45147;-60
2023/01/30 17:15:50;;;;;;;;;11.33;7.33;;;;;;;;6401154;22;45474;-60
2023/01/30 17:18:16;;;;;;;;;8.67;4.00;;;;;;;;6402023;22;45395;-60
2023/01/30 17:20:46;;;;;;;;;13.00;8.00;;;;;;;;6402623;22;46060;-60
2023/01/30 17:23:14;;;;;;;;;14.67;10.67;;;;;;;;6403188;22;45452;-61
2023/01/30 17:25:41;;;;;;;;;8.67;8.00;;;;;;;;6399414;22;45298;-60
2023/01/30 17:28:07;;;;;;;;;11.00;8.33;;;;;;;;6401475;22;45546;-60
2023/01/30 17:30:33;;;;;;;;;7.67;6.00;;;;;;;;6402318;22;45348;-60
2023/01/30 17:32:58;;;;;;;;;8.67;7.00;;;;;;;;6401649;22;45332;-60
2023/01/30 17:35:23;;;;;;;;;11.00;8.00;;;;;;;;6403618;22;45226;-60
2023/01/30 17:37:50;;;;;;;;;9.67;8.00;;;;;;;;6403852;22;45184;-60
2023/01/30 17:40:21;;;;;;;;;12.00;7.33;;;;;;;;6402622;22;45736;-59
2023/01/30 17:42:47;;;;;;;;;8.33;5.00;;;;;;;;6404062;22;45168;-61
2023/01/30 17:45:12;;;;;;;;;6.33;6.00;;;;;;;;6403688;22;45427;-60
2023/01/30 17:47:37;;;;;;;;;10.33;7.67;;;;;;;;6404191;22;45314;-60
2023/01/30 17:50:02;;;;;;;;;7.33;6.67;;;;;;;;6400820;22;46115;-60
2023/01/30 17:52:28;;;;;;;;;9.00;5.00;;;;;;;;6402238;22;45321;-60
2023/01/30 17:54:53;;;;;;;;;8.00;5.67;;;;;;;;6401917;22;45244;-60
2023/01/30 17:57:19;;;;;;;;;9.33;7.00;;;;;;;;6403939;22;45316;-60
2023/01/30 17:59:45;;;;;;;;;6.00;5.00;;;;;;;;6401870;22;45293;-60
2023/01/30 18:02:10;;;;;;;;;11.33;6.00;;;;;;;;6401386;22;45311;-61
2023/01/30 18:04:38;;;;;;;;;4.33;4.33;;;;;;;;6402693;22;45288;-60
2023/01/30 18:07:05;;;;;;;;;7.00;7.00;;;;;;;;6398131;22;45474;-60
2023/01/30 18:09:31;;;;;;;;;6.00;5.00;;;;;;;;6401614;22;47041;-62
2023/01/30 18:11:56;;;;;;;;;14.50;11.50;;;;;;;;6401662;22;45274;-61
2023/01/30 18:14:21;;;;;;;;;9.33;6.00;;;;;;;;6402302;22;45285;-61
2023/01/30 18:16:47;;;;;;;;;10.00;10.00;;;;;;;;6400406;22;45611;-62
2023/01/30 18:19:13;;;;;;;;;7.67;6.00;;;;;;;;6401146;22;46062;-63
2023/01/30 18:21:38;;;;;;;;;5.00;5.00;;;;;;;;6402121;22;45391;-62
2023/01/30 18:24:04;;;;;;;;;11.33;7.33;;;;;;;;6400020;22;45725;-62
2023/01/30 18:26:29;;;;;;;;;11.00;8.33;;;;;;;;6402776;22;45499;-62
2023/01/30 18:28:55;;;;;;;;;14.33;10.67;;;;;;;;6401016;22;46060;-62
2023/01/30 18:31:22;;;;;;;;;15.00;14.00;;;;;;;;6402538;22;45631;-62
2023/01/30 18:33:48;;;;;;;;;16.33;14.00;;;;;;;;6402759;22;45211;-61
2023/01/30 18:36:14;;;;;;;;;19.67;15.00;;;;;;;;6401807;22;45494;-61
2023/01/30 18:38:40;;;;;;;;;24.00;16.33;;;;;;;;6402102;22;45518;-60
2023/01/30 18:41:06;;;;;;;;;25.67;20.67;;;;;;;;6403575;22;45252;-60
2023/01/30 18:43:31;;;;;;;;;20.00;17.33;;;;;;;;6403054;22;45159;-61
2023/01/30 18:46:01;;;;;;;;;25.00;23.67;;;;;;;;6402372;22;45544;-60
2023/01/30 18:48:26;;;;;;;;;32.67;27.67;;;;;;;;6402978;22;46181;-60
2023/01/30 18:50:51;;;;;;;;;33.00;30.00;;;;;;;;6403597;22;45356;-61
2023/01/30 18:53:17;;;;;;;;;23.33;23.00;;;;;;;;6375356;22;45458;-61
2023/01/30 18:55:48;;;;;;;;;26.00;22.00;;;;;;;;6404184;22;45280;-61
2023/01/30 18:58:13;;;;;;;;;31.67;25.33;;;;;;;;6402352;22;46257;-61
2023/01/30 19:00:38;;;;;;;;;31.33;24.00;;;;;;;;6402963;22;45422;-60
2023/01/30 19:03:03;;;;;;;;;24.67;24.67;;;;;;;;6403920;22;45241;-59
2023/01/30 19:05:28;;;;;;;;;34.00;25.33;;;;;;;;6404994;22;45729;-60
2023/01/30 19:07:54;;;;;;;;;31.00;28.67;;;;;;;;6403580;22;45879;-61
2023/01/30 19:10:19;;;;;;;;;31.67;31.67;;;;;;;;6403691;22;45217;-61
2023/01/30 19:15:28;;;;;;;;;34.33;32.33;;;;;;;;6401362;22;45362;-61
2023/01/30 19:17:55;;;;;;;;;48.25;37.75;;;;;;;;6400727;22;46514;-61
2023/01/30 19:20:20;;;;;;;;;45.50;35.50;;;;;;;;6401820;22;45745;-61
2023/01/30 19:22:47;;;;;;;;;52.00;38.00;;;;;;;;6401020;22;45749;-61
2023/01/30 19:25:12;;;;;;;;;38.75;36.25;;;;;;;;6398195;22;46175;-61
2023/01/30 19:27:37;;;;;;;;;45.00;37.00;;;;;;;;6402369;22;45324;-61
2023/01/30 19:30:03;;;;;;;;;39.75;35.50;;;;;;;;6403331;22;45319;-61
2023/01/30 19:32:28;;;;;;;;;40.00;35.75;;;;;;;;6402663;22;45301;-60
2023/01/30 19:34:53;;;;;;;;;44.75;35.25;;;;;;;;6398459;22;45219;-63
2023/01/30 19:37:18;;;;;;;;;45.75;36.00;;;;;;;;6400042;22;45328;-61
2023/01/30 19:39:44;;;;;;;;;43.25;37.25;;;;;;;;6403321;22;45269;-61
2023/01/30 19:42:09;;;;;;;;;34.25;33.25;;;;;;;;6402344;22;45281;-61
2023/01/30 19:44:35;;;;;;;;;48.00;36.75;;;;;;;;6402863;22;45634;-60
2023/01/30 19:47:00;;;;;;;;;48.50;42.00;;;;;;;;6402621;22;46095;-60
2023/01/30 19:49:25;;;;;;;;;46.00;38.50;;;;;;;;6401930;22;45347;-62
2023/01/30 19:51:50;;;;;;;;;37.25;34.75;;;;;;;;6402621;22;45298;-60
2023/01/30 19:54:17;;;;;;;;;44.50;35.50;;;;;;;;6400900;22;45199;-60
2023/01/30 19:56:47;;;;;;;;;49.75;38.25;;;;;;;;6371885;22;46070;-61
2023/01/30 19:59:12;;;;;;;;;47.25;37.00;;;;;;;;6400854;22;45368;-61
2023/01/30 20:01:38;;;;;;;;;47.75;36.75;;;;;;;;6401540;22;45452;-62
2023/01/30 20:04:04;;;;;;;;;49.75;40.25;;;;;;;;6401555;22;45241;-60
2023/01/30 20:06:30;;;;;;;;;52.25;40.00;;;;;;;;6402783;22;45506;-59
2023/01/30 20:08:58;;;;;;;;;37.00;35.25;;;;;;;;6403592;22;45187;-61
2023/01/30 20:11:24;;;;;;;;;52.00;39.25;;;;;;;;6403914;22;45308;-60
2023/01/30 20:13:49;;;;;;;;;50.75;38.25;;;;;;;;6403838;22;45244;-60
2023/01/30 20:16:18;;;;;;;;;49.00;40.00;;;;;;;;6403444;22;45297;-61
2023/01/30 20:18:44;;;;;;;;;53.00;42.00;;;;;;;;6403378;22;45283;-61
2023/01/30 20:21:11;;;;;;;;;54.25;43.75;;;;;;;;6403464;22;45234;-61
2023/01/30 20:23:37;;;;;;;;;48.50;40.50;;;;;;;;6403264;22;45464;-60
2023/01/30 20:26:05;;;;;;;;;50.75;39.75;;;;;;;;6402934;22;47060;-61
2023/01/30 20:28:31;;;;;;;;;52.50;41.25;;;;;;;;6403309;22;45407;-61
2023/01/30 20:30:57;;;;;;;;;56.50;43.50;;;;;;;;6397050;22;45457;-61
2023/01/30 20:33:23;;;;;;;;;49.25;40.25;;;;;;;;6398906;22;45357;-61
2023/01/30 20:35:48;;;;;;;;;54.00;41.25;;;;;;;;6401606;22;45308;-61
2023/01/30 20:38:13;;;;;;;;;54.75;44.50;;;;;;;;6393513;22;45810;-61